createdAt,value
2022-12-25T00:00:32.409Z,33.15
2022-12-25T00:05:35.054Z,34.33
2022-12-25T00:10:44.685Z,31.80
2022-12-25T00:15:48.465Z,33.10
2022-12-25T00:21:05.374Z,32.33
2022-12-25T00:26:10.685Z,34.40
2022-12-25T00:31:17.960Z,33.05
2022-12-25T00:36:22.388Z,34.60
2022-12-25T00:41:43.631Z,36.38
2022-12-25T00:46:47.308Z,37.05
2022-12-25T00:51:50.706Z,36.17
2022-12-25T00:56:53.894Z,36.08
2022-12-25T01:01:56.630Z,35.22
2022-12-25T01:06:59.221Z,33.83
2022-12-25T01:12:01.787Z,33.28
2022-12-25T01:17:04.589Z,34.28
2022-12-25T01:22:08.491Z,34.13
2022-12-25T01:27:13.664Z,30.07
2022-12-25T01:32:16.997Z,34.05
2022-12-25T01:37:21.129Z,35.13
2022-12-25T01:42:24.117Z,32.58
2022-12-25T01:47:26.780Z,31.48
2022-12-25T01:52:31.801Z,33.03
2022-12-25T01:57:36.573Z,34.05
2022-12-25T02:07:42.819Z,30.42
2022-12-25T02:12:47.625Z,31.77
2022-12-25T02:18:07.745Z,34.10
2022-12-25T02:23:40.740Z,32.95
2022-12-25T02:29:10.594Z,33.67
2022-12-25T02:34:53.057Z,32.55
2022-12-25T02:40:15.999Z,33.50
2022-12-25T02:45:45.038Z,32.28
2022-12-25T02:51:08.220Z,32.58
2022-12-25T02:56:50.075Z,30.27
2022-12-25T03:02:12.393Z,29.75
2022-12-25T03:07:22.462Z,31.50
2022-12-25T03:12:40.172Z,30.95
2022-12-25T03:17:42.827Z,31.10
2022-12-25T03:23:04.706Z,33.40
2022-12-25T03:28:07.196Z,37.97
2022-12-25T03:34:03.598Z,40.28
2022-12-25T03:39:53.733Z,35.78
2022-12-25T03:45:26.951Z,30.23
2022-12-25T03:51:03.780Z,28.20
2022-12-25T03:56:25.520Z,27.92
2022-12-25T04:01:46.749Z,31.15
2022-12-25T04:07:12.009Z,30.73
2022-12-25T04:12:33.228Z,33.95
2022-12-25T04:17:54.393Z,33.60
2022-12-25T04:23:15.720Z,30.73
2022-12-25T04:28:36.896Z,34.10
2022-12-25T04:33:58.139Z,33.58
2022-12-25T04:39:00.845Z,35.55
2022-12-25T04:44:03.546Z,33.08
2022-12-25T04:49:06.249Z,31.25
2022-12-25T04:54:10.371Z,31.13
2022-12-25T04:59:13.025Z,29.10
2022-12-25T05:04:15.590Z,29.45
2022-12-25T05:09:18.315Z,28.95
2022-12-25T05:14:21.573Z,28.33
2022-12-25T05:19:24.976Z,28.58
2022-12-25T05:24:29.041Z,24.77
2022-12-25T05:29:32.618Z,29.33
2022-12-25T05:34:35.156Z,29.38
2022-12-25T05:39:37.902Z,28.05
2022-12-25T05:44:40.483Z,27.95
2022-12-25T05:49:43.554Z,28.98
2022-12-25T05:54:46.042Z,27.85
2022-12-25T05:59:48.693Z,26.52
2022-12-25T06:04:51.403Z,28.23
2022-12-25T06:09:54.960Z,26.17
2022-12-25T06:14:57.650Z,25.38
2022-12-25T06:20:00.491Z,25.95
2022-12-25T06:25:03.065Z,25.15
2022-12-25T06:30:06.517Z,24.35
2022-12-25T06:35:09.307Z,24.70
2022-12-25T06:40:13.267Z,25.60
2022-12-25T06:45:15.897Z,25.48
2022-12-25T06:50:20.241Z,26.13
2022-12-25T06:55:22.778Z,25.77
2022-12-25T07:00:25.498Z,23.17
2022-12-25T07:05:28.319Z,26.10
2022-12-25T07:10:30.900Z,24.70
2022-12-25T07:15:33.453Z,25.20
2022-12-25T07:20:37.022Z,25.10
2022-12-25T07:26:01.779Z,28.45
2022-12-25T07:31:06.953Z,27.90
2022-12-25T07:36:13.085Z,24.60
2022-12-25T07:41:15.938Z,28.00
2022-12-25T07:46:18.631Z,29.30
2022-12-25T07:51:21.246Z,30.30
2022-12-25T07:56:26.228Z,28.02
2022-12-25T08:01:29.872Z,28.30
2022-12-25T08:06:34.905Z,29.55
2022-12-25T08:11:38.594Z,27.98
2022-12-25T08:16:42.300Z,28.73
2022-12-25T08:21:45.013Z,28.95
2022-12-25T08:26:47.640Z,29.20
2022-12-25T08:31:50.283Z,32.80
2022-12-25T08:36:53.965Z,36.28
2022-12-25T08:41:59.148Z,34.33
2022-12-25T08:47:01.780Z,30.30
2022-12-25T08:52:04.526Z,30.83
2022-12-25T08:57:07.037Z,28.88
2022-12-25T09:02:12.278Z,30.45
2022-12-25T09:07:15.235Z,30.73
2022-12-25T09:12:18.463Z,31.70
2022-12-25T09:17:27.373Z,30.25
2022-12-25T09:22:29.974Z,29.30
2022-12-25T09:27:32.524Z,29.83
2022-12-25T09:32:35.162Z,31.38
2022-12-25T09:37:38.598Z,35.35
2022-12-25T09:42:42.057Z,30.38
2022-12-25T09:47:47.165Z,29.10
2022-12-25T09:53:10.508Z,27.38
2022-12-25T09:58:15.138Z,29.20
2022-12-25T10:03:52.451Z,31.08
2022-12-25T10:09:20.431Z,30.13
2022-12-25T10:14:43.849Z,28.63
2022-12-25T10:20:15.838Z,30.43
2022-12-25T10:25:22.381Z,30.80
2022-12-25T10:30:27.838Z,31.55
2022-12-25T10:35:32.870Z,30.02
2022-12-25T10:40:46.139Z,31.20
2022-12-25T10:45:50.603Z,32.05
2022-12-25T10:50:53.324Z,32.03
2022-12-25T10:56:04.679Z,31.75
2022-12-25T11:01:08.543Z,32.72
2022-12-25T11:06:32.392Z,31.73
2022-12-25T11:11:37.568Z,29.55
2022-12-25T11:16:41.077Z,30.00
2022-12-25T11:21:51.565Z,30.23
2022-12-25T11:27:39.076Z,31.08
2022-12-25T11:32:45.434Z,30.60
2022-12-25T11:37:50.583Z,31.50
2022-12-25T11:42:54.678Z,30.38
2022-12-25T11:48:24.665Z,31.33
2022-12-25T11:53:49.643Z,28.92
2022-12-25T11:59:01.041Z,28.75
2022-12-25T12:04:31.046Z,28.20
2022-12-25T12:10:10.719Z,29.63
2022-12-25T12:15:49.855Z,29.15
2022-12-25T12:21:02.524Z,29.60
2022-12-25T12:26:05.461Z,27.90
2022-12-25T12:31:08.326Z,28.02
2022-12-25T12:36:14.583Z,28.08
2022-12-25T12:41:18.200Z,32.05
2022-12-25T12:46:31.601Z,31.33
2022-12-25T12:51:36.420Z,34.08
2022-12-25T12:56:38.928Z,32.58
2022-12-25T13:02:08.220Z,32.00
2022-12-25T13:07:18.239Z,35.08
2022-12-25T13:12:23.057Z,37.90
2022-12-25T13:17:27.150Z,38.85
2022-12-25T13:22:34.784Z,38.85
2022-12-25T13:27:37.385Z,41.90
2022-12-25T13:32:41.902Z,41.60
2022-12-25T13:37:45.026Z,38.35
2022-12-25T13:42:50.237Z,42.60
2022-12-25T13:47:55.477Z,42.78
2022-12-25T13:53:12.779Z,42.50
2022-12-25T13:58:23.126Z,42.20
2022-12-25T14:03:46.055Z,40.70
2022-12-25T14:08:49.086Z,39.55
2022-12-25T14:13:57.003Z,39.80
2022-12-25T14:19:22.642Z,37.97
2022-12-25T14:24:26.891Z,39.67
2022-12-25T14:29:39.663Z,39.67
2022-12-25T14:34:46.227Z,38.90
2022-12-25T14:40:05.128Z,42.08
2022-12-25T14:45:35.361Z,42.33
2022-12-25T14:50:41.553Z,40.17
2022-12-25T14:55:51.988Z,41.00
2022-12-25T15:00:59.957Z,42.88
2022-12-25T15:06:05.245Z,43.25
2022-12-25T15:11:09.191Z,42.60
2022-12-25T15:16:17.965Z,47.10
2022-12-25T15:21:28.929Z,44.35
2022-12-25T15:26:37.848Z,42.60
2022-12-25T15:31:42.176Z,46.25
2022-12-25T15:36:44.842Z,45.05
2022-12-25T15:42:08.157Z,40.72
2022-12-25T15:47:12.985Z,40.13
2022-12-25T15:52:17.367Z,42.22
2022-12-25T15:57:22.283Z,37.45
2022-12-25T16:02:26.184Z,38.95
2022-12-25T16:07:31.954Z,39.80
2022-12-25T16:12:34.500Z,39.83
2022-12-25T16:17:37.090Z,38.38
2022-12-25T16:22:40.131Z,41.00
2022-12-25T16:27:43.971Z,40.67
2022-12-25T16:32:50.731Z,38.40
2022-12-25T16:37:53.466Z,40.72
2022-12-25T16:42:56.517Z,39.25
2022-12-25T16:47:59.086Z,39.97
2022-12-25T16:53:01.976Z,41.30
2022-12-25T16:58:06.550Z,38.45
2022-12-25T17:03:10.163Z,39.58
2022-12-25T17:08:12.958Z,39.70
2022-12-25T17:13:15.481Z,39.60
2022-12-25T17:18:22.192Z,42.95
2022-12-25T17:23:24.775Z,39.08
2022-12-25T17:28:27.520Z,41.38
2022-12-25T17:33:30.759Z,40.25
2022-12-25T17:38:34.682Z,42.83
2022-12-25T17:43:40.230Z,42.97
2022-12-25T17:48:43.218Z,46.03
2022-12-25T17:53:48.037Z,47.45
2022-12-25T17:58:54.955Z,44.58
2022-12-25T18:03:59.793Z,47.20
2022-12-25T18:09:02.864Z,46.58
2022-12-25T18:14:07.085Z,49.25
2022-12-25T18:19:28.347Z,39.90
2022-12-25T18:24:31.140Z,48.80
2022-12-25T18:29:35.255Z,45.10
2022-12-25T18:34:41.054Z,48.60
2022-12-25T18:39:44.822Z,55.28
2022-12-25T18:44:48.498Z,47.67
2022-12-25T18:49:51.386Z,55.27
2022-12-25T18:54:54.469Z,48.08
2022-12-25T18:59:57.525Z,48.22
2022-12-25T19:10:05.544Z,48.33
2022-12-25T19:15:08.614Z,50.03
2022-12-25T19:20:11.832Z,47.67
2022-12-25T19:25:14.427Z,54.38
2022-12-25T19:30:20.734Z,59.22
2022-12-25T19:35:23.605Z,54.03
2022-12-25T19:40:27.520Z,60.47
2022-12-25T19:45:30.590Z,53.17
2022-12-25T19:50:33.684Z,63.42
2022-12-25T19:55:36.213Z,58.42
2022-12-25T20:00:40.517Z,51.10
2022-12-25T20:05:45.469Z,52.55
2022-12-25T20:10:48.342Z,50.28
2022-12-25T20:15:51.252Z,61.67
2022-12-25T20:21:09.657Z,49.30
2022-12-25T20:26:13.999Z,59.72
2022-12-25T20:31:28.561Z,59.97
2022-12-25T20:36:36.673Z,62.28
2022-12-25T20:41:40.956Z,61.50
2022-12-25T20:46:46.018Z,63.03
2022-12-25T20:51:48.801Z,63.47
2022-12-25T20:56:52.898Z,65.93
2022-12-25T21:01:59.163Z,61.75
2022-12-25T21:07:03.128Z,61.97
2022-12-25T21:12:07.364Z,61.35
2022-12-25T21:17:10.538Z,59.63
2022-12-25T21:22:13.291Z,63.05
2022-12-25T21:27:16.025Z,62.38
2022-12-25T21:32:38.128Z,65.82
2022-12-25T21:37:40.727Z,68.32
2022-12-25T21:42:43.446Z,68.75
2022-12-25T21:48:02.543Z,61.00
2022-12-25T21:53:06.359Z,63.78
2022-12-25T21:58:09.004Z,57.78
2022-12-25T22:03:11.645Z,56.80
2022-12-25T22:08:14.237Z,59.03
2022-12-25T22:13:35.394Z,60.70
2022-12-25T22:18:56.812Z,53.20
2022-12-25T22:24:01.887Z,49.38
2022-12-25T22:34:08.486Z,40.28
2022-12-25T22:39:11.060Z,35.88
2022-12-25T22:44:18.011Z,36.17
2022-12-25T22:49:21.162Z,41.08
2022-12-25T22:54:24.692Z,39.33
2022-12-25T22:59:27.202Z,33.45
2022-12-25T23:04:30.119Z,36.88
2022-12-25T23:09:32.682Z,35.67
2022-12-25T23:14:41.129Z,34.88
2022-12-25T23:20:02.246Z,35.35
2022-12-25T23:25:31.268Z,36.70
2022-12-25T23:30:34.181Z,37.22
2022-12-25T23:35:36.799Z,34.22
2022-12-25T23:40:39.345Z,34.13
2022-12-25T23:45:42.099Z,34.15
2022-12-25T23:50:44.663Z,31.90
2022-12-25T23:55:53.499Z,31.88
